sensor_id;sensor_type;location;lat;lon;timestamp;pressure;altitude;pressure_sealevel;temperature;humidity
5703;BME280;2876;51.738;10.050;2023-03-18T00:04:45;98619.75;;;11.55;62.69
5703;BME280;2876;51.738;10.050;2023-03-18T00:10:50;98622.03;;;11.14;65.54
5703;BME280;2876;51.738;10.050;2023-03-18T00:16:51;98629.19;;;11.21;66.28
5703;BME280;2876;51.738;10.050;2023-03-18T00:22:54;98630.47;;;11.18;67.39
5703;BME280;2876;51.738;10.050;2023-03-18T00:28:58;98632.22;;;11.06;67.81
5703;BME280;2876;51.738;10.050;2023-03-18T00:35:01;98631.09;;;10.88;68.63
5703;BME280;2876;51.738;10.050;2023-03-18T00:41:04;98639.91;;;10.71;69.65
5703;BME280;2876;51.738;10.050;2023-03-18T00:47:12;98635.91;;;10.55;70.66
5703;BME280;2876;51.738;10.050;2023-03-18T00:53:15;98629.72;;;10.54;70.81
5703;BME280;2876;51.738;10.050;2023-03-18T00:59:17;98627.16;;;10.66;70.87
5703;BME280;2876;51.738;10.050;2023-03-18T01:05:20;98631.09;;;10.88;69.66
5703;BME280;2876;51.738;10.050;2023-03-18T01:11:23;98628.75;;;10.74;71.37
5703;BME280;2876;51.738;10.050;2023-03-18T01:17:25;98636.84;;;10.67;72.40
5703;BME280;2876;51.738;10.050;2023-03-18T01:23:28;98645.34;;;10.89;72.26
5703;BME280;2876;51.738;10.050;2023-03-18T01:29:30;98638.44;;;10.75;71.97
5703;BME280;2876;51.738;10.050;2023-03-18T01:35:36;98647.56;;;10.67;71.53
5703;BME280;2876;51.738;10.050;2023-03-18T01:41:38;98653.06;;;10.79;71.89
5703;BME280;2876;51.738;10.050;2023-03-18T01:47:41;98648.19;;;11.19;70.80
5703;BME280;2876;51.738;10.050;2023-03-18T01:53:48;98643.66;;;11.20;70.25
5703;BME280;2876;51.738;10.050;2023-03-18T01:59:52;98639.53;;;11.17;69.41
5703;BME280;2876;51.738;10.050;2023-03-18T02:05:56;98656.25;;;11.19;70.54
5703;BME280;2876;51.738;10.050;2023-03-18T02:12:01;98665.03;;;11.26;69.86
5703;BME280;2876;51.738;10.050;2023-03-18T02:18:27;98672.03;;;11.09;70.95
5703;BME280;2876;51.738;10.050;2023-03-18T02:24:54;98667.19;;;10.92;72.00
5703;BME280;2876;51.738;10.050;2023-03-18T02:31:02;98671.09;;;10.97;72.64
5703;BME280;2876;51.738;10.050;2023-03-18T02:37:06;98680.69;;;10.86;73.45
5703;BME280;2876;51.738;10.050;2023-03-18T02:43:31;98685.41;;;10.84;74.30
5703;BME280;2876;51.738;10.050;2023-03-18T02:49:33;98676.56;;;10.83;74.50
5703;BME280;2876;51.738;10.050;2023-03-18T02:55:35;98678.16;;;10.91;74.27
5703;BME280;2876;51.738;10.050;2023-03-18T03:01:38;98682.88;;;10.96;73.89
5703;BME280;2876;51.738;10.050;2023-03-18T03:07:40;98687.53;;;10.75;75.45
5703;BME280;2876;51.738;10.050;2023-03-18T03:13:43;98690.94;;;10.89;75.95
5703;BME280;2876;51.738;10.050;2023-03-18T03:19:48;98690.44;;;10.74;77.65
5703;BME280;2876;51.738;10.050;2023-03-18T03:25:50;98699.81;;;10.58;79.98
5703;BME280;2876;51.738;10.050;2023-03-18T03:31:52;98698.41;;;10.49;80.98
5703;BME280;2876;51.738;10.050;2023-03-18T03:37:54;98691.66;;;10.46;83.56
5703;BME280;2876;51.738;10.050;2023-03-18T03:43:55;98697.06;;;10.33;87.21
5703;BME280;2876;51.738;10.050;2023-03-18T03:49:58;98696.16;;;9.94;88.44
5703;BME280;2876;51.738;10.050;2023-03-18T03:56:00;98716.16;;;9.91;88.10
5703;BME280;2876;51.738;10.050;2023-03-18T04:02:02;98723.41;;;9.71;89.79
5703;BME280;2876;51.738;10.050;2023-03-18T04:08:04;98709.81;;;9.66;90.36
5703;BME280;2876;51.738;10.050;2023-03-18T04:14:07;98713.13;;;9.61;90.97
5703;BME280;2876;51.738;10.050;2023-03-18T04:20:10;98714.56;;;9.57;91.30
5703;BME280;2876;51.738;10.050;2023-03-18T04:26:12;98712.16;;;9.36;92.32
5703;BME280;2876;51.738;10.050;2023-03-18T04:32:14;98721.81;;;9.37;91.72
5703;BME280;2876;51.738;10.050;2023-03-18T04:38:16;98716.63;;;9.49;91.05
5703;BME280;2876;51.738;10.050;2023-03-18T04:44:18;98702.84;;;9.52;91.07
5703;BME280;2876;51.738;10.050;2023-03-18T04:50:21;98710.28;;;9.50;91.05
5703;BME280;2876;51.738;10.050;2023-03-18T04:56:24;98719.72;;;9.52;90.42
5703;BME280;2876;51.738;10.050;2023-03-18T05:02:26;98722.00;;;9.55;90.00
5703;BME280;2876;51.738;10.050;2023-03-18T05:08:28;98721.59;;;9.58;89.95
5703;BME280;2876;51.738;10.050;2023-03-18T05:14:30;98725.09;;;9.19;90.65
5703;BME280;2876;51.738;10.050;2023-03-18T05:20:33;98722.44;;;9.19;90.92
5703;BME280;2876;51.738;10.050;2023-03-18T05:26:35;98732.50;;;9.10;91.89
5703;BME280;2876;51.738;10.050;2023-03-18T05:32:37;98718.09;;;9.11;91.55
5703;BME280;2876;51.738;10.050;2023-03-18T05:38:39;98717.69;;;8.81;93.24
5703;BME280;2876;51.738;10.050;2023-03-18T05:44:41;98725.50;;;9.03;92.99
5703;BME280;2876;51.738;10.050;2023-03-18T05:50:43;98734.56;;;9.15;92.71
5703;BME280;2876;51.738;10.050;2023-03-18T05:56:45;98742.81;;;9.27;92.16
5703;BME280;2876;51.738;10.050;2023-03-18T06:02:47;98738.06;;;9.42;92.54
5703;BME280;2876;51.738;10.050;2023-03-18T06:08:56;98735.81;;;9.39;92.82
5703;BME280;2876;51.738;10.050;2023-03-18T06:14:59;98741.16;;;9.26;93.11
5703;BME280;2876;51.738;10.050;2023-03-18T06:21:01;98754.97;;;9.23;93.77
5703;BME280;2876;51.738;10.050;2023-03-18T06:27:03;98738.66;;;9.57;93.60
5703;BME280;2876;51.738;10.050;2023-03-18T06:33:05;98741.16;;;9.46;94.96
5703;BME280;2876;51.738;10.050;2023-03-18T06:39:07;98759.66;;;9.74;94.63
5703;BME280;2876;51.738;10.050;2023-03-18T06:45:10;98767.22;;;10.10;94.67
5703;BME280;2876;51.738;10.050;2023-03-18T06:51:12;98781.25;;;13.24;83.53
5703;BME280;2876;51.738;10.050;2023-03-18T06:57:14;98784.72;;;15.51;72.98
5703;BME280;2876;51.738;10.050;2023-03-18T07:03:16;98803.81;;;16.50;67.73
5703;BME280;2876;51.738;10.050;2023-03-18T07:09:18;98806.84;;;15.98;69.37
5703;BME280;2876;51.738;10.050;2023-03-18T07:15:22;98812.72;;;14.47;73.29
5703;BME280;2876;51.738;10.050;2023-03-18T07:21:25;98813.09;;;13.80;75.90
5703;BME280;2876;51.738;10.050;2023-03-18T07:27:27;98822.72;;;14.00;77.76
5703;BME280;2876;51.738;10.050;2023-03-18T07:33:29;98828.34;;;15.88;71.76
5703;BME280;2876;51.738;10.050;2023-03-18T07:39:31;98843.56;;;16.28;69.25
5703;BME280;2876;51.738;10.050;2023-03-18T07:45:34;98836.94;;;15.22;74.36
5703;BME280;2876;51.738;10.050;2023-03-18T07:51:36;98843.94;;;14.55;78.20
5703;BME280;2876;51.738;10.050;2023-03-18T07:57:38;98830.94;;;14.40;78.81
5703;BME280;2876;51.738;10.050;2023-03-18T08:03:41;98845.50;;;14.04;80.37
5703;BME280;2876;51.738;10.050;2023-03-18T08:09:44;98840.75;;;14.69;79.63
5703;BME280;2876;51.738;10.050;2023-03-18T08:15:47;98851.97;;;14.90;77.65
5703;BME280;2876;51.738;10.050;2023-03-18T08:21:49;98858.47;;;15.63;75.07
5703;BME280;2876;51.738;10.050;2023-03-18T08:27:51;98851.75;;;16.33;71.76
5703;BME280;2876;51.738;10.050;2023-03-18T08:33:54;98863.66;;;17.14;68.76
5703;BME280;2876;51.738;10.050;2023-03-18T08:39:57;98872.38;;;17.97;66.71
5703;BME280;2876;51.738;10.050;2023-03-18T08:45:59;98879.41;;;19.41;60.59
5703;BME280;2876;51.738;10.050;2023-03-18T08:52:02;98889.31;;;21.39;55.17
5703;BME280;2876;51.738;10.050;2023-03-18T08:58:06;98875.47;;;22.04;51.14
5703;BME280;2876;51.738;10.050;2023-03-18T09:04:08;98888.06;;;23.92;46.92
5703;BME280;2876;51.738;10.050;2023-03-18T09:10:11;98901.13;;;25.20;43.24
5703;BME280;2876;51.738;10.050;2023-03-18T09:16:15;98903.97;;;25.29;42.72
5703;BME280;2876;51.738;10.050;2023-03-18T09:22:18;98889.72;;;24.58;43.41
5703;BME280;2876;51.738;10.050;2023-03-18T09:28:20;98890.41;;;23.23;47.62
5703;BME280;2876;51.738;10.050;2023-03-18T09:34:22;98884.97;;;22.99;46.37
5703;BME280;2876;51.738;10.050;2023-03-18T09:40:27;98885.88;;;22.60;49.28
5703;BME280;2876;51.738;10.050;2023-03-18T09:53:24;98881.38;;;23.41;47.65
5703;BME280;2876;51.738;10.050;2023-03-18T10:06:18;98890.69;;;25.59;42.94
5703;BME280;2876;51.738;10.050;2023-03-18T10:12:34;98888.50;;;22.99;47.16
5703;BME280;2876;51.738;10.050;2023-03-18T10:18:38;98880.28;;;21.39;51.35
5703;BME280;2876;51.738;10.050;2023-03-18T10:25:19;98888.69;;;23.27;46.98
5703;BME280;2876;51.738;10.050;2023-03-18T10:38:03;98894.09;;;21.58;50.44
5703;BME280;2876;51.738;10.050;2023-03-18T10:44:24;98904.34;;;19.12;57.92
5703;BME280;2876;51.738;10.050;2023-03-18T10:50:51;98899.94;;;18.54;60.34
5703;BME280;2876;51.738;10.050;2023-03-18T10:56:57;98902.84;;;18.84;58.95
5703;BME280;2876;51.738;10.050;2023-03-18T11:03:00;98901.97;;;18.31;59.92
5703;BME280;2876;51.738;10.050;2023-03-18T11:09:11;98902.56;;;18.81;58.77
5703;BME280;2876;51.738;10.050;2023-03-18T11:15:18;98903.94;;;18.41;60.47
5703;BME280;2876;51.738;10.050;2023-03-18T11:21:22;98905.34;;;18.96;58.14
5703;BME280;2876;51.738;10.050;2023-03-18T11:27:37;98908.16;;;21.20;51.94
5703;BME280;2876;51.738;10.050;2023-03-18T11:33:39;98901.28;;;19.87;55.36
5703;BME280;2876;51.738;10.050;2023-03-18T11:39:41;98903.22;;;20.17;53.87
5703;BME280;2876;51.738;10.050;2023-03-18T11:58:54;98895.28;;;20.71;51.14
5703;BME280;2876;51.738;10.050;2023-03-18T12:05:38;98897.97;;;20.76;49.74
5703;BME280;2876;51.738;10.050;2023-03-18T12:39:02;98887.78;;;23.74;44.40
5703;BME280;2876;51.738;10.050;2023-03-18T12:45:17;98888.81;;;25.32;39.03
5703;BME280;2876;51.738;10.050;2023-03-18T12:51:27;98874.88;;;23.37;42.95
5703;BME280;2876;51.738;10.050;2023-03-18T12:57:55;98881.28;;;23.89;42.50
5703;BME280;2876;51.738;10.050;2023-03-18T13:04:15;98878.38;;;22.71;43.89
5703;BME280;2876;51.738;10.050;2023-03-18T13:10:22;98875.88;;;24.49;42.01
5703;BME280;2876;51.738;10.050;2023-03-18T13:16:26;98880.28;;;23.61;43.77
5703;BME280;2876;51.738;10.050;2023-03-18T13:23:16;98873.13;;;22.26;46.05
5703;BME280;2876;51.738;10.050;2023-03-18T13:30:17;98883.41;;;23.12;43.96
5703;BME280;2876;51.738;10.050;2023-03-18T13:42:42;98884.00;;;27.60;36.55
5703;BME280;2876;51.738;10.050;2023-03-18T13:48:46;98886.75;;;27.60;35.12
5703;BME280;2876;51.738;10.050;2023-03-18T13:54:48;98889.03;;;27.93;32.53
5703;BME280;2876;51.738;10.050;2023-03-18T14:07:12;98872.03;;;25.33;35.53
5703;BME280;2876;51.738;10.050;2023-03-18T14:13:26;98866.78;;;23.08;40.14
5703;BME280;2876;51.738;10.050;2023-03-18T14:19:28;98864.13;;;23.03;41.52
5703;BME280;2876;51.738;10.050;2023-03-18T14:25:42;98868.19;;;22.52;42.95
5703;BME280;2876;51.738;10.050;2023-03-18T14:31:59;98864.44;;;21.80;43.80
5703;BME280;2876;51.738;10.050;2023-03-18T14:38:48;98866.69;;;21.23;45.11
5703;BME280;2876;51.738;10.050;2023-03-18T14:45:23;98856.56;;;21.39;44.96
5703;BME280;2876;51.738;10.050;2023-03-18T14:51:28;98855.72;;;21.39;45.91
5703;BME280;2876;51.738;10.050;2023-03-18T14:57:32;98854.78;;;21.04;46.20
5703;BME280;2876;51.738;10.050;2023-03-18T15:03:36;98843.72;;;20.75;47.84
5703;BME280;2876;51.738;10.050;2023-03-18T15:09:41;98833.97;;;21.18;46.50
5703;BME280;2876;51.738;10.050;2023-03-18T15:15:45;98837.25;;;20.45;47.30
5703;BME280;2876;51.738;10.050;2023-03-18T15:21:48;98842.22;;;19.92;49.98
5703;BME280;2876;51.738;10.050;2023-03-18T15:27:53;98834.56;;;19.59;51.32
5703;BME280;2876;51.738;10.050;2023-03-18T15:34:28;98838.63;;;19.56;52.55
5703;BME280;2876;51.738;10.050;2023-03-18T15:40:45;98833.78;;;19.79;52.37
5703;BME280;2876;51.738;10.050;2023-03-18T15:46:48;98840.53;;;19.50;52.59
5703;BME280;2876;51.738;10.050;2023-03-18T15:53:18;98833.78;;;19.73;52.37
5703;BME280;2876;51.738;10.050;2023-03-18T15:59:30;98839.72;;;19.55;53.37
5703;BME280;2876;51.738;10.050;2023-03-18T16:05:33;98821.53;;;19.61;53.19
5703;BME280;2876;51.738;10.050;2023-03-18T16:11:35;98830.47;;;20.33;51.52
5703;BME280;2876;51.738;10.050;2023-03-18T16:17:37;98838.53;;;23.13;46.10
5703;BME280;2876;51.738;10.050;2023-03-18T16:23:40;98831.13;;;23.13;45.33
5703;BME280;2876;51.738;10.050;2023-03-18T16:29:42;98841.59;;;25.66;37.64
5703;BME280;2876;51.738;10.050;2023-03-18T16:35:55;98864.00;;;27.20;35.47
5703;BME280;2876;51.738;10.050;2023-03-18T16:42:00;98860.97;;;27.47;34.09
5703;BME280;2876;51.738;10.050;2023-03-18T16:48:05;98855.72;;;25.50;37.76
5703;BME280;2876;51.738;10.050;2023-03-18T16:54:30;98861.06;;;23.04;41.51
5703;BME280;2876;51.738;10.050;2023-03-18T17:00:33;98863.16;;;21.23;46.48
5703;BME280;2876;51.738;10.050;2023-03-18T17:06:35;98849.22;;;19.42;51.96
5703;BME280;2876;51.738;10.050;2023-03-18T17:12:38;98852.78;;;17.63;58.05
5703;BME280;2876;51.738;10.050;2023-03-18T17:18:40;98853.06;;;16.30;63.43
5703;BME280;2876;51.738;10.050;2023-03-18T17:24:42;98857.91;;;15.32;67.02
5703;BME280;2876;51.738;10.050;2023-03-18T17:30:44;98865.06;;;14.46;70.41
5703;BME280;2876;51.738;10.050;2023-03-18T17:36:47;98872.31;;;13.99;72.33
5703;BME280;2876;51.738;10.050;2023-03-18T17:42:50;98865.38;;;13.67;73.57
5703;BME280;2876;51.738;10.050;2023-03-18T17:48:53;98868.50;;;13.64;74.75
5703;BME280;2876;51.738;10.050;2023-03-18T17:54:55;98871.16;;;13.41;75.54
5703;BME280;2876;51.738;10.050;2023-03-18T18:01:13;98887.75;;;13.38;75.78
5703;BME280;2876;51.738;10.050;2023-03-18T18:07:19;98881.81;;;13.48;75.81
5703;BME280;2876;51.738;10.050;2023-03-18T18:13:22;98881.91;;;13.41;76.83
5703;BME280;2876;51.738;10.050;2023-03-18T18:19:24;98882.91;;;13.58;76.68
5703;BME280;2876;51.738;10.050;2023-03-18T18:25:27;98883.13;;;13.57;76.52
5703;BME280;2876;51.738;10.050;2023-03-18T18:31:31;98888.31;;;13.70;76.56
5703;BME280;2876;51.738;10.050;2023-03-18T18:37:35;98890.19;;;13.69;76.50
5703;BME280;2876;51.738;10.050;2023-03-18T18:43:37;98891.66;;;13.95;75.60
5703;BME280;2876;51.738;10.050;2023-03-18T18:49:39;98893.00;;;13.63;77.00
5703;BME280;2876;51.738;10.050;2023-03-18T18:55:41;98885.38;;;13.60;76.08
5703;BME280;2876;51.738;10.050;2023-03-18T19:01:43;98889.94;;;13.59;75.14
5703;BME280;2876;51.738;10.050;2023-03-18T19:07:45;98891.44;;;13.55;75.40
5703;BME280;2876;51.738;10.050;2023-03-18T19:13:47;98892.00;;;13.45;75.28
5703;BME280;2876;51.738;10.050;2023-03-18T19:19:50;98889.03;;;13.35;75.74
5703;BME280;2876;51.738;10.050;2023-03-18T19:25:54;98892.06;;;13.09;76.49
5703;BME280;2876;51.738;10.050;2023-03-18T19:31:57;98889.91;;;12.99;77.94
5703;BME280;2876;51.738;10.050;2023-03-18T19:38:02;98891.16;;;12.97;78.84
5703;BME280;2876;51.738;10.050;2023-03-18T19:44:19;98899.69;;;12.93;78.72
5703;BME280;2876;51.738;10.050;2023-03-18T19:50:22;98895.22;;;12.69;79.01
5703;BME280;2876;51.738;10.050;2023-03-18T19:56:27;98904.63;;;12.60;79.87
5703;BME280;2876;51.738;10.050;2023-03-18T20:02:32;98902.59;;;12.55;80.11
5703;BME280;2876;51.738;10.050;2023-03-18T20:08:34;98902.38;;;12.57;81.30
5703;BME280;2876;51.738;10.050;2023-03-18T20:14:36;98894.78;;;12.72;80.52
5703;BME280;2876;51.738;10.050;2023-03-18T20:20:48;98902.19;;;12.77;80.23
5703;BME280;2876;51.738;10.050;2023-03-18T20:26:51;98899.31;;;12.72;80.32
5703;BME280;2876;51.738;10.050;2023-03-18T20:32:54;98896.78;;;12.95;78.87
5703;BME280;2876;51.738;10.050;2023-03-18T20:38:56;98908.13;;;12.79;79.53
5703;BME280;2876;51.738;10.050;2023-03-18T20:44:58;98900.59;;;12.87;79.20
5703;BME280;2876;51.738;10.050;2023-03-18T20:51:01;98910.16;;;13.02;78.35
5703;BME280;2876;51.738;10.050;2023-03-18T20:57:03;98920.63;;;12.91;79.13
5703;BME280;2876;51.738;10.050;2023-03-18T21:03:25;98916.97;;;12.86;79.87
5703;BME280;2876;51.738;10.050;2023-03-18T21:09:28;98929.53;;;12.74;81.05
5703;BME280;2876;51.738;10.050;2023-03-18T21:15:30;98926.53;;;12.63;81.29
5703;BME280;2876;51.738;10.050;2023-03-18T21:21:37;98935.50;;;12.76;80.81
5703;BME280;2876;51.738;10.050;2023-03-18T21:27:39;98932.09;;;12.43;81.90
5703;BME280;2876;51.738;10.050;2023-03-18T21:33:41;98925.88;;;12.43;82.06
5703;BME280;2876;51.738;10.050;2023-03-18T21:39:45;98933.81;;;12.38;82.32
5703;BME280;2876;51.738;10.050;2023-03-18T21:45:48;98940.47;;;12.35;82.60
5703;BME280;2876;51.738;10.050;2023-03-18T21:51:51;98946.53;;;12.24;83.26
5703;BME280;2876;51.738;10.050;2023-03-18T21:57:53;98943.34;;;12.59;84.46
5703;BME280;2876;51.738;10.050;2023-03-18T22:03:55;98932.28;;;12.24;87.54
5703;BME280;2876;51.738;10.050;2023-03-18T22:09:57;98917.75;;;12.31;90.09
5703;BME280;2876;51.738;10.050;2023-03-18T22:15:59;98940.13;;;12.00;91.77
5703;BME280;2876;51.738;10.050;2023-03-18T22:22:01;98933.38;;;12.16;92.55
5703;BME280;2876;51.738;10.050;2023-03-18T22:28:04;98944.50;;;12.19;92.61
5703;BME280;2876;51.738;10.050;2023-03-18T22:34:22;98954.38;;;12.01;93.62
5703;BME280;2876;51.738;10.050;2023-03-18T22:40:27;98955.94;;;11.83;94.89
5703;BME280;2876;51.738;10.050;2023-03-18T22:46:30;98940.00;;;11.88;97.46
5703;BME280;2876;51.738;10.050;2023-03-18T22:52:32;98938.34;;;11.87;98.27
5703;BME280;2876;51.738;10.050;2023-03-18T22:58:34;98927.31;;;11.64;100.00
5703;BME280;2876;51.738;10.050;2023-03-18T23:04:37;98936.44;;;11.56;100.00
5703;BME280;2876;51.738;10.050;2023-03-18T23:10:40;98932.06;;;11.62;100.00
5703;BME280;2876;51.738;10.050;2023-03-18T23:16:42;98934.63;;;11.50;100.00
5703;BME280;2876;51.738;10.050;2023-03-18T23:22:44;98932.16;;;11.80;98.50
5703;BME280;2876;51.738;10.050;2023-03-18T23:28:46;98941.50;;;11.71;99.14
5703;BME280;2876;51.738;10.050;2023-03-18T23:34:49;98931.41;;;11.66;99.02
5703;BME280;2876;51.738;10.050;2023-03-18T23:40:51;98926.34;;;11.58;99.87
5703;BME280;2876;51.738;10.050;2023-03-18T23:46:53;98923.41;;;11.60;99.26
5703;BME280;2876;51.738;10.050;2023-03-18T23:52:55;98934.63;;;11.50;99.61
5703;BME280;2876;51.738;10.050;2023-03-18T23:58:57;98931.38;;;11.41;100.00
